createdAt,value
2022-09-15T00:00:30.678Z,9.88
2022-09-15T00:03:04.455Z,6.43
2022-09-15T00:05:55.460Z,8.18
2022-09-15T00:08:23.580Z,6.00
2022-09-15T00:10:58.767Z,8.38
2022-09-15T00:13:27.223Z,5.55
2022-09-15T00:15:56.106Z,6.20
2022-09-15T00:18:24.552Z,4.40
2022-09-15T00:20:59.221Z,8.20
2022-09-15T00:23:27.432Z,6.53
2022-09-15T00:25:55.851Z,6.63
2022-09-15T00:28:24.221Z,4.97
2022-09-15T00:30:54.994Z,5.65
2022-09-15T00:33:24.888Z,6.45
2022-09-15T00:35:53.776Z,6.97
2022-09-15T00:38:25.348Z,5.97
2022-09-15T00:40:55.951Z,6.82
2022-09-15T00:43:52.971Z,7.63
2022-09-15T00:46:33.874Z,4.03
2022-09-15T00:49:10.979Z,6.95
2022-09-15T00:51:50.772Z,9.38
2022-09-15T00:54:23.014Z,6.32
2022-09-15T00:56:53.341Z,7.68
2022-09-15T00:59:42.538Z,6.45
2022-09-15T01:02:22.633Z,10.00
2022-09-15T01:04:58.143Z,7.20
2022-09-15T01:07:43.848Z,9.70
2022-09-15T01:10:30.371Z,5.90
2022-09-15T01:13:01.404Z,7.80
2022-09-15T01:15:57.578Z,6.85
2022-09-15T01:18:33.891Z,7.40
2022-09-15T01:21:02.032Z,11.07
2022-09-15T01:23:59.110Z,6.43
2022-09-15T01:26:43.579Z,8.85
2022-09-15T01:29:48.111Z,13.43
2022-09-15T01:32:51.036Z,9.00
2022-09-15T01:35:25.125Z,10.20
2022-09-15T01:38:17.757Z,9.07
2022-09-15T01:41:17.994Z,12.55
2022-09-15T01:44:09.930Z,9.90
2022-09-15T01:46:47.190Z,12.32
2022-09-15T01:49:25.843Z,11.60
2022-09-15T01:51:55.622Z,8.73
2022-09-15T01:55:01.564Z,6.03
2022-09-15T01:58:05.877Z,7.95
2022-09-15T02:01:17.436Z,10.68
2022-09-15T02:04:53.806Z,7.68
2022-09-15T02:09:04.780Z,7.00
2022-09-15T02:41:18.919Z,7.78
2022-09-15T02:43:52.731Z,8.90
2022-09-15T02:47:02.324Z,6.40
2022-09-15T02:50:13.525Z,8.38
2022-09-15T02:52:48.571Z,8.07
2022-09-15T03:02:03.549Z,6.05
2022-09-15T03:04:50.431Z,6.15
2022-09-15T03:13:18.365Z,6.10
2022-09-15T03:15:47.180Z,7.18
2022-09-15T03:18:50.239Z,6.72
2022-09-15T03:32:08.603Z,12.80
2022-09-15T03:46:10.790Z,7.13
2022-09-15T03:53:20.954Z,7.57
2022-09-15T03:55:56.971Z,8.38
2022-09-15T04:00:00.513Z,8.63
2022-09-15T04:02:32.502Z,7.78
2022-09-15T04:05:22.739Z,13.48
2022-09-15T04:09:37.923Z,10.27
2022-09-15T04:12:45.115Z,18.35
2022-09-15T04:15:14.747Z,11.93
2022-09-15T04:17:44.037Z,8.77
2022-09-15T04:20:12.355Z,9.73
2022-09-15T04:23:14.579Z,8.63
2022-09-15T04:25:43.826Z,6.15
2022-09-15T04:28:14.560Z,8.02
2022-09-15T04:30:42.562Z,7.18
2022-09-15T04:33:17.134Z,8.68
2022-09-15T04:35:49.067Z,9.95
2022-09-15T04:38:17.659Z,6.13
2022-09-15T04:40:47.441Z,8.88
2022-09-15T04:43:16.525Z,11.57
2022-09-15T04:45:45.334Z,11.10
2022-09-15T04:48:15.609Z,9.23
2022-09-15T04:50:44.521Z,8.32
2022-09-15T04:53:19.627Z,6.43
2022-09-15T04:55:48.108Z,9.63
2022-09-15T04:58:16.206Z,9.57
2022-09-15T05:00:49.382Z,7.32
2022-09-15T05:03:20.676Z,6.25
2022-09-15T05:05:54.057Z,7.90
2022-09-15T05:08:22.688Z,5.70
2022-09-15T05:10:51.312Z,5.45
2022-09-15T05:13:19.527Z,7.28
2022-09-15T05:16:10.128Z,6.85
2022-09-15T05:18:39.035Z,7.68
2022-09-15T05:21:14.608Z,8.32
2022-09-15T05:23:49.952Z,5.30
2022-09-15T05:26:23.423Z,6.07
2022-09-15T05:28:55.146Z,5.45
2022-09-15T05:31:28.482Z,5.95
2022-09-15T05:33:58.913Z,4.65
2022-09-15T05:36:37.635Z,6.63
2022-09-15T05:41:41.996Z,7.13
2022-09-15T05:44:13.310Z,5.63
2022-09-15T05:46:44.952Z,5.68
2022-09-15T05:49:16.284Z,4.95
2022-09-15T05:51:48.802Z,10.48
2022-09-15T05:54:17.480Z,6.07
2022-09-15T05:56:45.567Z,8.02
2022-09-15T05:59:22.998Z,5.50
2022-09-15T06:01:57.792Z,5.70
2022-09-15T06:04:36.747Z,4.93
2022-09-15T06:07:08.846Z,7.45
2022-09-15T06:09:42.569Z,7.18
2022-09-15T06:12:47.631Z,7.63
2022-09-15T06:15:26.338Z,6.80
2022-09-15T06:17:55.560Z,5.20
2022-09-15T06:20:26.598Z,4.95
2022-09-15T06:22:56.872Z,5.35
2022-09-15T06:25:33.638Z,8.15
2022-09-15T06:28:05.511Z,5.25
2022-09-15T06:30:35.061Z,6.60
2022-09-15T06:33:10.620Z,6.93
2022-09-15T06:35:41.610Z,8.15
2022-09-15T06:38:18.770Z,4.47
2022-09-15T06:41:01.976Z,10.88
2022-09-15T06:43:34.735Z,5.20
2022-09-15T06:46:17.701Z,5.20
2022-09-15T06:48:48.544Z,5.32
2022-09-15T06:51:33.362Z,5.93
2022-09-15T06:54:08.628Z,6.10
2022-09-15T06:56:48.925Z,6.55
2022-09-15T06:59:19.312Z,7.20
2022-09-15T07:01:54.297Z,4.38
2022-09-15T07:04:23.672Z,5.43
2022-09-15T07:06:52.455Z,6.28
2022-09-15T07:09:29.082Z,5.45
2022-09-15T07:12:02.173Z,9.65
2022-09-15T07:14:32.899Z,5.50
2022-09-15T07:17:03.088Z,6.00
2022-09-15T07:19:33.600Z,6.13
2022-09-15T07:22:11.791Z,8.52
2022-09-15T07:24:39.787Z,6.50
2022-09-15T07:27:09.008Z,6.78
2022-09-15T07:29:41.067Z,6.82
2022-09-15T07:32:09.116Z,5.53
2022-09-15T07:34:45.117Z,6.72
2022-09-15T07:37:14.611Z,3.45
2022-09-15T07:39:45.429Z,4.40
2022-09-15T07:42:15.401Z,4.07
2022-09-15T07:44:49.470Z,3.58
2022-09-15T07:47:22.603Z,5.82
2022-09-15T07:50:06.139Z,6.95
2022-09-15T07:52:34.774Z,8.57
2022-09-15T07:55:02.817Z,8.48
2022-09-15T07:57:31.294Z,3.38
2022-09-15T07:59:59.674Z,7.65
2022-09-15T08:02:30.054Z,4.35
2022-09-15T08:04:58.821Z,2.80
2022-09-15T08:07:30.901Z,5.40
2022-09-15T08:09:59.054Z,4.72
2022-09-15T08:12:27.370Z,6.93
2022-09-15T08:14:55.139Z,7.32
2022-09-15T08:17:23.310Z,4.40
2022-09-15T08:19:53.783Z,4.57
2022-09-15T08:22:22.566Z,4.38
2022-09-15T08:24:53.363Z,5.35
2022-09-15T08:27:21.538Z,3.58
2022-09-15T08:29:49.389Z,4.88
2022-09-15T08:32:17.388Z,3.58
2022-09-15T08:34:46.064Z,2.78
2022-09-15T08:37:14.776Z,6.03
2022-09-15T08:39:45.932Z,3.10
2022-09-15T08:42:23.453Z,3.22
2022-09-15T08:44:59.930Z,2.28
2022-09-15T08:47:37.408Z,5.20
2022-09-15T08:50:23.065Z,3.53
2022-09-15T08:52:57.665Z,3.63
2022-09-15T08:55:32.876Z,5.90
2022-09-15T08:58:00.877Z,3.90
2022-09-15T09:00:28.803Z,6.45
2022-09-15T09:03:11.891Z,4.13
2022-09-15T09:05:52.156Z,2.20
2022-09-15T09:08:46.576Z,5.60
2022-09-15T09:11:23.852Z,5.88
2022-09-15T09:14:46.968Z,3.10
2022-09-15T09:17:27.470Z,3.17
2022-09-15T09:20:10.164Z,2.58
2022-09-15T09:22:39.612Z,3.25
2022-09-15T09:25:26.486Z,3.58
2022-09-15T09:27:59.767Z,4.80
2022-09-15T09:30:29.026Z,3.35
2022-09-15T09:33:26.699Z,5.72
2022-09-15T09:35:54.699Z,3.67
2022-09-15T09:38:27.809Z,2.67
2022-09-15T09:40:58.677Z,5.88
2022-09-15T09:43:30.380Z,5.35
2022-09-15T09:45:59.757Z,8.52
2022-09-15T09:48:28.287Z,8.52
2022-09-15T09:50:58.819Z,4.65
2022-09-15T09:53:34.022Z,4.53
2022-09-15T09:56:14.970Z,4.78
2022-09-15T10:00:01.409Z,4.05
2022-09-15T10:03:11.918Z,6.88
2022-09-15T10:05:42.411Z,6.17
2022-09-15T10:08:18.419Z,4.75
2022-09-15T10:10:53.878Z,5.03
2022-09-15T10:13:29.246Z,7.45
2022-09-15T10:16:06.088Z,6.43
2022-09-15T10:19:12.073Z,8.65
2022-09-15T10:21:54.481Z,6.57
2022-09-15T10:24:58.582Z,7.30
2022-09-15T10:28:01.952Z,4.40
2022-09-15T10:30:30.915Z,10.30
2022-09-15T10:34:41.008Z,9.13
2022-09-15T10:37:26.364Z,6.47
2022-09-15T10:45:37.823Z,5.78
2022-09-15T10:49:04.226Z,6.97
2022-09-15T10:52:16.510Z,14.75
2022-09-15T10:55:12.259Z,8.15
2022-09-15T10:58:04.176Z,9.40
2022-09-15T11:00:44.083Z,7.50
2022-09-15T11:03:34.418Z,7.78
2022-09-15T11:06:24.701Z,7.45
2022-09-15T11:09:25.484Z,9.63
2022-09-15T11:12:12.403Z,10.15
2022-09-15T11:14:45.212Z,7.50
2022-09-15T11:17:20.511Z,8.75
2022-09-15T11:20:26.475Z,8.80
2022-09-15T11:22:58.540Z,9.52
2022-09-15T11:25:34.349Z,6.65
2022-09-15T11:28:29.722Z,8.25
2022-09-15T11:31:04.255Z,10.23
2022-09-15T11:33:42.763Z,8.32
2022-09-15T11:36:16.192Z,12.27
2022-09-15T11:38:56.230Z,11.18
2022-09-15T11:41:38.502Z,10.75
2022-09-15T11:44:16.781Z,13.40
2022-09-15T11:47:39.295Z,10.63
2022-09-15T11:50:30.323Z,9.68
2022-09-15T11:53:09.681Z,8.65
2022-09-15T11:56:20.195Z,9.50
2022-09-15T11:59:13.622Z,9.65
2022-09-15T12:01:49.342Z,11.43
2022-09-15T12:04:32.328Z,14.05
2022-09-15T12:07:14.897Z,14.23
2022-09-15T12:09:45.687Z,13.55
2022-09-15T12:12:16.630Z,10.90
2022-09-15T12:14:48.980Z,13.07
2022-09-15T12:17:35.865Z,14.43
2022-09-15T12:20:27.443Z,13.20
2022-09-15T12:23:12.194Z,13.02
2022-09-15T12:26:05.250Z,12.30
2022-09-15T12:28:41.390Z,8.27
2022-09-15T12:31:25.281Z,11.60
2022-09-15T12:34:03.732Z,11.35
2022-09-15T12:36:42.405Z,13.63
2022-09-15T12:39:27.076Z,15.95
2022-09-15T12:42:00.748Z,11.10
2022-09-15T12:44:40.706Z,16.63
2022-09-15T12:47:21.556Z,12.27
2022-09-15T12:49:49.851Z,13.95
2022-09-15T12:52:18.036Z,17.05
2022-09-15T12:54:45.836Z,13.40
2022-09-15T12:57:20.829Z,11.05
2022-09-15T12:59:48.690Z,13.73
2022-09-15T13:02:42.445Z,12.60
2022-09-15T13:05:11.907Z,13.35
2022-09-15T13:07:54.667Z,18.02
2022-09-15T13:10:32.354Z,13.38
2022-09-15T13:13:15.855Z,12.23
2022-09-15T13:15:45.204Z,15.00
2022-09-15T13:18:13.582Z,14.50
2022-09-15T13:20:48.879Z,11.75
2022-09-15T13:23:16.750Z,27.90
2022-09-15T13:25:45.000Z,15.82
2022-09-15T13:28:12.934Z,19.00
2022-09-15T13:31:05.236Z,19.67
2022-09-15T13:40:05.499Z,10.55
2022-09-15T13:42:51.975Z,18.25
2022-09-15T13:45:27.015Z,26.73
2022-09-15T13:48:19.522Z,14.10
2022-09-15T13:50:57.288Z,14.05
2022-09-15T13:53:43.105Z,18.00
2022-09-15T13:56:38.725Z,8.98
2022-09-15T13:59:14.137Z,15.68
2022-09-15T14:01:43.238Z,11.88
2022-09-15T14:04:19.327Z,10.68
2022-09-15T14:06:48.913Z,13.13
2022-09-15T14:09:19.948Z,8.85
2022-09-15T14:11:48.999Z,8.00
2022-09-15T14:14:42.084Z,7.38
2022-09-15T14:17:24.562Z,16.67
2022-09-15T14:19:56.870Z,7.10
2022-09-15T14:22:31.844Z,11.48
2022-09-15T14:25:00.896Z,10.48
2022-09-15T14:27:30.117Z,11.52
2022-09-15T14:29:58.681Z,18.77
2022-09-15T14:32:28.049Z,37.65
2022-09-15T14:34:57.953Z,10.48
2022-09-15T14:37:29.451Z,9.90
2022-09-15T14:39:59.137Z,15.25
2022-09-15T14:42:35.296Z,15.13
2022-09-15T14:50:32.867Z,10.73
2022-09-15T14:53:16.450Z,13.95
2022-09-15T14:55:51.240Z,12.15
2022-09-15T14:58:42.691Z,15.55
2022-09-15T15:01:46.240Z,16.88
2022-09-15T15:04:17.130Z,13.80
2022-09-15T15:07:01.916Z,19.73
2022-09-15T15:10:01.111Z,17.70
2022-09-15T15:12:33.633Z,16.88
2022-09-15T15:15:02.095Z,21.45
2022-09-15T15:17:37.545Z,28.90
2022-09-15T15:20:08.551Z,17.65
2022-09-15T15:22:40.406Z,17.75
2022-09-15T15:25:28.324Z,16.92
2022-09-15T15:27:59.901Z,15.52
2022-09-15T15:30:30.932Z,15.18
2022-09-15T15:32:59.970Z,18.77
2022-09-15T15:35:27.885Z,18.05
2022-09-15T15:38:16.810Z,18.30
2022-09-15T15:40:44.657Z,23.80
2022-09-15T15:43:23.956Z,17.95
2022-09-15T15:46:01.156Z,24.17
2022-09-15T15:48:36.846Z,21.23
2022-09-15T15:51:05.941Z,29.38
2022-09-15T15:53:34.555Z,20.10
2022-09-15T15:56:02.682Z,37.88
2022-09-15T15:58:31.437Z,22.77
2022-09-15T16:01:00.029Z,27.48
2022-09-15T16:03:27.791Z,22.92
2022-09-15T16:05:59.641Z,21.52
2022-09-15T16:08:32.157Z,22.60
2022-09-15T16:11:01.081Z,29.90
2022-09-15T16:13:30.371Z,26.73
2022-09-15T16:16:02.964Z,26.80
2022-09-15T16:18:32.158Z,22.17
2022-09-15T16:20:59.931Z,27.35
2022-09-15T16:23:28.031Z,29.38
2022-09-15T16:26:00.506Z,24.90
2022-09-15T16:28:29.622Z,28.05
2022-09-15T16:31:01.160Z,24.17
2022-09-15T16:33:34.604Z,26.10
2022-09-15T16:36:08.392Z,29.10
2022-09-15T16:38:36.951Z,45.00
2022-09-15T16:41:11.031Z,65.55
2022-09-15T16:43:39.101Z,86.90
2022-09-15T16:46:07.336Z,68.50
2022-09-15T16:48:35.665Z,69.75
2022-09-15T16:53:59.053Z,68.78
2022-09-15T16:56:27.274Z,73.03
2022-09-15T16:59:00.100Z,63.30
2022-09-15T17:01:28.596Z,60.83
2022-09-15T17:03:57.711Z,63.58
2022-09-15T17:06:25.503Z,53.40
2022-09-15T17:08:55.830Z,61.40
2022-09-15T17:11:25.590Z,63.55
2022-09-15T17:13:54.117Z,70.28
2022-09-15T17:16:22.620Z,62.17
2022-09-15T17:18:50.524Z,57.78
2022-09-15T17:21:26.130Z,54.25
2022-09-15T17:23:54.747Z,45.17
2022-09-15T17:26:30.579Z,40.45
2022-09-15T17:28:59.343Z,40.28
2022-09-15T17:31:30.205Z,44.30
2022-09-15T17:33:58.134Z,37.25
2022-09-15T17:36:30.028Z,34.97
2022-09-15T17:38:57.820Z,34.00
2022-09-15T17:41:26.110Z,38.42
2022-09-15T17:43:54.091Z,30.80
2022-09-15T17:46:24.524Z,25.50
2022-09-15T17:48:54.387Z,30.42
2022-09-15T17:51:22.382Z,32.35
2022-09-15T17:53:50.863Z,26.20
2022-09-15T17:56:18.881Z,26.05
2022-09-15T17:58:46.662Z,26.20
2022-09-15T18:01:14.751Z,34.88
2022-09-15T18:03:43.494Z,28.95
2022-09-15T18:06:11.406Z,26.05
2022-09-15T18:08:39.502Z,28.60
2022-09-15T18:11:07.377Z,28.55
2022-09-15T18:13:38.131Z,31.38
2022-09-15T18:16:07.430Z,31.90
2022-09-15T18:18:36.546Z,27.65
2022-09-15T18:21:12.324Z,26.05
2022-09-15T18:23:42.539Z,31.63
2022-09-15T18:26:11.093Z,27.67
2022-09-15T18:28:39.197Z,23.20
2022-09-15T18:31:07.536Z,24.20
2022-09-15T18:33:35.718Z,23.35
2022-09-15T18:36:06.270Z,18.30
2022-09-15T18:38:35.933Z,16.80
2022-09-15T18:41:04.733Z,21.58
2022-09-15T18:43:32.739Z,16.60
2022-09-15T18:46:01.388Z,14.48
2022-09-15T18:48:29.511Z,16.73
2022-09-15T18:50:57.364Z,17.98
2022-09-15T18:53:25.750Z,20.80
2022-09-15T18:55:53.741Z,16.73
2022-09-15T18:58:22.702Z,13.82
2022-09-15T19:00:50.998Z,16.00
2022-09-15T19:03:19.050Z,17.33
2022-09-15T19:05:48.698Z,17.60
2022-09-15T19:08:17.061Z,15.63
2022-09-15T19:11:06.111Z,19.10
2022-09-15T19:13:35.760Z,12.82
2022-09-15T19:16:07.817Z,15.15
2022-09-15T19:18:35.916Z,17.15
2022-09-15T19:21:06.482Z,17.58
2022-09-15T19:23:36.070Z,15.30
2022-09-15T19:26:05.494Z,15.98
2022-09-15T19:28:34.591Z,17.23
2022-09-15T19:31:02.365Z,15.50
2022-09-15T19:33:33.418Z,19.67
2022-09-15T19:36:26.834Z,15.10
2022-09-15T19:38:51.427Z,16.55
2022-09-15T19:41:19.285Z,15.48
2022-09-15T19:43:47.224Z,21.00
2022-09-15T19:46:19.796Z,16.45
2022-09-15T19:48:57.321Z,15.10
2022-09-15T19:51:25.604Z,16.38
2022-09-15T19:53:55.079Z,16.27
2022-09-15T19:56:23.571Z,19.30
2022-09-15T19:58:51.508Z,17.23
2022-09-15T20:01:19.834Z,16.88
2022-09-15T20:06:33.099Z,13.20
2022-09-15T20:09:01.141Z,16.88
2022-09-15T20:11:29.739Z,16.13
2022-09-15T20:13:57.916Z,17.23
2022-09-15T20:16:27.330Z,16.15
2022-09-15T20:18:55.944Z,16.52
2022-09-15T20:21:48.581Z,14.02
2022-09-15T20:24:17.051Z,17.02
2022-09-15T20:26:44.867Z,17.50
2022-09-15T20:29:12.760Z,15.95
2022-09-15T20:31:42.283Z,12.88
2022-09-15T20:34:10.121Z,14.45
2022-09-15T20:36:39.065Z,15.35
2022-09-15T20:39:10.028Z,13.43
2022-09-15T20:41:38.041Z,17.90
2022-09-15T20:44:09.357Z,13.73
2022-09-15T20:46:38.224Z,19.83
2022-09-15T20:49:06.976Z,18.60
2022-09-15T20:51:34.764Z,15.27
2022-09-15T20:54:04.286Z,17.38
2022-09-15T20:56:35.551Z,14.80
2022-09-15T20:59:03.923Z,13.10
2022-09-15T21:01:36.909Z,11.90
2022-09-15T21:04:06.999Z,13.98
2022-09-15T21:06:39.080Z,11.80
2022-09-15T21:09:07.267Z,8.40
2022-09-15T21:11:35.903Z,9.77
2022-09-15T21:14:04.451Z,11.95
2022-09-15T21:16:35.086Z,10.82
2022-09-15T21:19:03.322Z,11.65
2022-09-15T21:21:32.622Z,12.93
2022-09-15T21:24:07.999Z,14.07
2022-09-15T21:27:00.330Z,13.60
2022-09-15T21:29:28.582Z,14.15
2022-09-15T21:31:56.595Z,16.55
2022-09-15T21:34:24.554Z,11.93
2022-09-15T21:36:53.713Z,13.27
2022-09-15T21:39:21.628Z,11.82
2022-09-15T21:41:49.922Z,18.15
2022-09-15T21:44:18.979Z,23.65
2022-09-15T21:46:47.392Z,12.52
2022-09-15T21:49:15.330Z,12.73
2022-09-15T21:51:43.268Z,15.63
2022-09-15T21:54:11.173Z,16.15
2022-09-15T21:56:40.337Z,23.05
2022-09-15T21:59:11.748Z,16.70
2022-09-15T22:01:40.305Z,21.88
2022-09-15T22:04:09.042Z,19.27
2022-09-15T22:06:40.578Z,15.70
2022-09-15T22:09:11.070Z,13.27
2022-09-15T22:11:39.453Z,12.60
2022-09-15T22:14:08.429Z,14.75
2022-09-15T22:16:38.156Z,16.05
2022-09-15T22:19:07.307Z,13.27
2022-09-15T22:21:37.125Z,12.75
2022-09-15T22:24:07.070Z,12.80
2022-09-15T22:26:36.721Z,12.77
2022-09-15T22:29:05.009Z,12.43
2022-09-15T22:31:32.867Z,17.58
2022-09-15T22:34:00.851Z,14.48
2022-09-15T22:36:30.334Z,18.77
2022-09-15T22:39:08.476Z,17.77
2022-09-15T22:41:38.303Z,17.48
2022-09-15T22:44:07.046Z,13.55
2022-09-15T22:46:35.751Z,15.43
2022-09-15T22:49:03.734Z,13.25
2022-09-15T22:51:33.075Z,17.50
2022-09-15T22:54:03.063Z,15.38
2022-09-15T22:56:30.814Z,14.30
2022-09-15T22:58:58.546Z,15.82
2022-09-15T23:01:28.222Z,12.85
2022-09-15T23:03:58.669Z,12.95
2022-09-15T23:06:28.047Z,15.00
2022-09-15T23:08:58.138Z,12.02
2022-09-15T23:11:27.585Z,18.98
2022-09-15T23:13:55.668Z,15.27
2022-09-15T23:16:24.375Z,17.23
2022-09-15T23:18:53.452Z,16.92
2022-09-15T23:21:21.303Z,17.05
2022-09-15T23:23:49.372Z,19.25
2022-09-15T23:26:20.022Z,20.83
2022-09-15T23:28:49.344Z,21.63
2022-09-15T23:31:17.509Z,19.17
2022-09-15T23:33:45.665Z,20.95
2022-09-15T23:36:15.321Z,22.20
2022-09-15T23:38:44.194Z,19.33
2022-09-15T23:41:12.400Z,19.98
2022-09-15T23:43:40.584Z,24.10
2022-09-15T23:46:10.277Z,25.65
2022-09-15T23:48:38.593Z,24.38
2022-09-15T23:51:06.432Z,25.65
2022-09-15T23:53:35.153Z,22.70
2022-09-15T23:56:03.035Z,23.92
2022-09-15T23:58:31.214Z,24.95
